Time;durP1;ratioP1;P1;durP2;ratioP2;P2;SDS_P1;SDS_P2;PMS_P1;PMS_P2;Temp;Humidity;BMP_temperature;BMP_pressure;BME280_temperature;BME280_humidity;BME280_pressure;Samples;Min_cycle;Max_cycle;Signal;HPM_P1;HPM_P2
2022/08/03 00:03:47;;;;;;;;;;;;;;;;;;;;;
2022/08/03 00:28:51;;;;;;;6.32;3.38;;;15.50;99.90;;;;;;6122516;23;20014;-79
2022/08/03 00:32:46;;;;;;;;;;;;;;;;;;;;;
2022/08/03 00:36:32;;;;;;;1.75;1.65;;;15.30;99.90;;;;;;6124021;23;20438;-79
2022/08/03 00:44:09;;;;;;;5.28;1.95;;;15.40;99.90;;;;;;6110627;23;20028;-79
2022/08/03 00:47:47;;;;;;;;;;;;;;;;;;;;;
2022/08/03 00:51:16;;;;;;;2.53;2.33;;;15.20;99.90;;;;;;6000346;23;20019;-79
2022/08/03 00:55:22;;;;;;;;;;;;;;;;;;;;;
2022/08/03 01:07:55;;;;;;;5.35;2.70;;;15.20;99.90;;;;;;5862464;24;20462;-79
2022/08/03 01:12:04;;;;;;;3.40;2.72;;;15.20;99.90;;;;;;5856614;24;20481;-79
2022/08/03 01:15:44;;;;;;;1.92;1.83;;;15.00;99.90;;;;;;5843644;24;20034;-79
2022/08/03 01:19:31;;;;;;;;;;;;;;;;;;;;;
2022/08/03 01:23:39;;;;;;;3.05;1.90;;;15.10;99.90;;;;;;5910455;23;20503;-79
2022/08/03 01:27:58;;;;;;;3.53;2.20;;;15.00;99.90;;;;;;5851590;24;20038;-79
2022/08/03 01:33:04;;;;;;;;;;;;;;;;;;;;;
2022/08/03 01:37:26;;;;;;;;;;;14.80;99.90;;;;;;5848441;24;20031;-79
2022/08/03 01:42:04;;;;;;;2.40;2.08;;;15.00;99.90;;;;;;5856653;24;20247;-79
2022/08/03 01:45:01;;;;;;;2.55;2.35;;;14.70;99.90;;;;;;5958705;23;20032;-79
2022/08/03 01:47:30;;;;;;;2.53;2.33;;;14.50;99.90;;;;;;5975106;23;20696;-79
2022/08/03 01:50:00;;;;;;;2.70;2.50;;;14.50;99.90;;;;;;6038986;23;20038;-79
2022/08/03 01:52:31;;;;;;;2.35;2.25;;;14.50;99.90;;;;;;6044990;23;20052;-80
2022/08/03 01:55:01;;;;;;;2.20;2.03;;;14.60;99.90;;;;;;6046047;23;20052;-79
2022/08/03 01:57:29;;;;;;;2.90;2.10;;;14.70;99.90;;;;;;6042180;23;20840;-80
2022/08/03 01:59:59;;;;;;;3.28;1.98;;;14.70;99.90;;;;;;6014990;23;20023;-80
2022/08/03 02:02:28;;;;;;;4.18;3.15;;;14.70;99.90;;;;;;6037381;23;20023;-79
2022/08/03 02:05:06;;;;;;;3.67;3.03;;;14.60;99.90;;;;;;6038844;23;20030;-79
2022/08/03 02:07:39;;;;;;;2.35;2.15;;;14.60;99.90;;;;;;6045714;23;20439;-79
2022/08/03 02:10:10;;;;;;;4.95;2.50;;;14.60;99.90;;;;;;6076308;23;20026;-79
2022/08/03 02:12:39;;;;;;;3.65;3.35;;;14.60;99.90;;;;;;6099849;23;20472;-79
2022/08/03 02:15:07;;;;;;;5.35;3.17;;;14.60;99.90;;;;;;6136513;23;20017;-80
2022/08/03 02:17:37;;;;;;;3.00;2.80;;;14.60;99.90;;;;;;6124101;23;20022;-79
2022/08/03 02:20:09;;;;;;;2.75;2.35;;;14.60;99.90;;;;;;6100156;23;20022;-79
2022/08/03 02:22:42;;;;;;;6.28;2.85;;;14.50;99.90;;;;;;6123720;23;20029;-79
2022/08/03 02:25:11;;;;;;;2.72;2.47;;;14.50;99.90;;;;;;6130525;23;20033;-80
2022/08/03 02:27:45;;;;;;;15.13;4.15;;;14.50;99.90;;;;;;6125475;23;20021;-80
2022/08/03 02:30:20;;;;;;;3.85;2.35;;;14.60;99.90;;;;;;6127859;23;20349;-80
2022/08/03 02:32:54;;;;;;;3.53;2.72;;;14.60;99.90;;;;;;6132563;23;20022;-80
2022/08/03 02:35:25;;;;;;;3.78;3.42;;;14.60;99.90;;;;;;6134800;23;20021;-80
2022/08/03 02:38:01;;;;;;;4.60;2.33;;;14.60;99.90;;;;;;6128697;23;20029;-79
2022/08/03 02:40:30;;;;;;;8.73;4.57;;;14.50;99.90;;;;;;6109195;23;20018;-79
2022/08/03 02:43:04;;;;;;;4.00;3.08;;;14.30;99.90;;;;;;6134949;23;20010;-80
2022/08/03 02:45:34;;;;;;;4.00;3.53;;;14.20;99.90;;;;;;6099812;23;20448;-81
2022/08/03 02:48:05;;;;;;;4.07;3.67;;;14.10;99.90;;;;;;6094334;23;20033;-81
2022/08/03 02:50:34;;;;;;;4.75;4.00;;;14.10;99.90;;;;;;6097037;23;20022;-81
2022/08/03 02:53:03;;;;;;;4.15;3.42;;;14.20;99.90;;;;;;6102641;23;20038;-81
2022/08/03 02:55:33;;;;;;;4.15;3.67;;;14.30;99.90;;;;;;6105984;23;20338;-81
2022/08/03 02:58:02;;;;;;;2.72;2.53;;;14.30;99.90;;;;;;6097007;23;20349;-81
2022/08/03 03:00:35;;;;;;;3.47;3.28;;;14.40;99.90;;;;;;6095853;23;20023;-81
2022/08/03 03:03:05;;;;;;;2.20;2.10;;;14.40;99.90;;;;;;6080803;23;20034;-81
2022/08/03 03:05:35;;;;;;;4.88;4.03;;;14.30;99.90;;;;;;6099522;23;20027;-82
2022/08/03 03:08:24;;;;;;;3.22;2.92;;;14.30;99.90;;;;;;6093850;23;20015;-81
2022/08/03 03:10:58;;;;;;;2.58;2.38;;;14.20;99.90;;;;;;6071483;23;20018;-82
2022/08/03 03:13:28;;;;;;;3.70;3.40;;;14.20;99.90;;;;;;6101663;23;20034;-81
2022/08/03 03:16:03;;;;;;;3.53;2.65;;;14.20;99.90;;;;;;6046648;23;20027;-80
2022/08/03 03:18:33;;;;;;;3.13;2.90;;;14.20;99.90;;;;;;6092793;23;20534;-80
2022/08/03 03:21:03;;;;;;;2.90;2.70;;;14.10;99.90;;;;;;6069771;23;20030;-81
2022/08/03 03:23:36;;;;;;;3.47;3.07;;;14.10;99.90;;;;;;6118571;23;20022;-81
2022/08/03 03:26:08;;;;;;;3.38;3.08;;;14.20;99.90;;;;;;6046481;23;20032;-80
2022/08/03 03:28:44;;;;;;;2.65;2.45;;;14.20;99.90;;;;;;6033153;23;20061;-80
2022/08/03 03:31:12;;;;;;;4.25;2.38;;;14.20;99.90;;;;;;5988905;23;20023;-80
2022/08/03 03:33:43;;;;;;;2.85;2.65;;;14.20;99.90;;;;;;6035379;23;20019;-81
2022/08/03 03:36:17;;;;;;;5.03;2.47;;;14.30;99.90;;;;;;6012231;23;20015;-81
2022/08/03 03:38:47;;;;;;;4.57;3.22;;;14.30;99.90;;;;;;5965336;23;20027;-81
2022/08/03 03:41:20;;;;;;;2.67;2.47;;;14.30;99.90;;;;;;5988236;23;20027;-80
2022/08/03 03:43:52;;;;;;;2.33;2.17;;;14.10;99.90;;;;;;5989045;23;20067;-80
2022/08/03 03:46:25;;;;;;;2.50;2.30;;;14.00;99.90;;;;;;6002094;23;20023;-80
2022/08/03 03:49:02;;;;;;;2.90;2.47;;;13.90;99.90;;;;;;5957285;23;20023;-81
2022/08/03 03:51:34;;;;;;;2.10;2.00;;;14.00;99.90;;;;;;6011390;23;20027;-80
2022/08/03 03:54:18;;;;;;;2.00;1.90;;;14.10;99.90;;;;;;6013099;23;20034;-81
2022/08/03 03:56:50;;;;;;;2.55;2.35;;;14.10;99.90;;;;;;6023464;23;20783;-81
2022/08/03 03:59:24;;;;;;;2.58;2.28;;;14.10;99.90;;;;;;6022926;23;20048;-80
2022/08/03 04:01:53;;;;;;;2.28;2.10;;;14.10;99.90;;;;;;6092248;23;20026;-81
2022/08/03 04:11:17;;;;;;;2.50;2.33;;;14.50;99.90;;;;;;6068125;23;20030;-80
2022/08/03 04:14:11;;;;;;;3.65;2.20;;;14.50;99.90;;;;;;6069501;23;20031;-80
2022/08/03 04:16:50;;;;;;;1.50;1.40;;;14.60;99.90;;;;;;6092642;23;20342;-80
2022/08/03 04:19:45;;;;;;;1.92;1.83;;;14.70;99.90;;;;;;6095080;23;20055;-80
2022/08/03 04:22:26;;;;;;;2.22;1.70;;;14.80;99.90;;;;;;6089709;23;20030;-80
2022/08/03 04:25:17;;;;;;;2.33;2.22;;;14.90;99.90;;;;;;6100202;23;20022;-80
2022/08/03 04:27:46;;;;;;;3.20;2.90;;;15.00;99.90;;;;;;6126116;23;20022;-80
2022/08/03 04:30:37;;;;;;;2.47;2.35;;;15.00;99.90;;;;;;6064712;23;20342;-80
2022/08/03 04:33:07;;;;;;;2.87;2.30;;;15.10;99.90;;;;;;6097085;23;20030;-80
2022/08/03 04:35:35;;;;;;;4.13;2.20;;;15.10;99.90;;;;;;6101892;23;20019;-80
2022/08/03 04:38:24;;;;;;;1.73;1.63;;;15.20;99.90;;;;;;6086879;23;20454;-80
2022/08/03 04:40:53;;;;;;;3.17;2.97;;;15.20;99.90;;;;;;6098651;23;20042;-80
2022/08/03 04:43:22;;;;;;;1.95;1.85;;;15.30;99.90;;;;;;6101171;23;20025;-80
2022/08/03 04:45:51;;;;;;;3.60;1.63;;;15.30;99.90;;;;;;6113943;23;20038;-80
2022/08/03 04:48:19;;;;;;;2.63;2.42;;;15.30;99.90;;;;;;6075678;23;20358;-80
2022/08/03 04:50:47;;;;;;;2.25;1.55;;;15.30;99.90;;;;;;6120936;23;20022;-80
2022/08/03 04:53:16;;;;;;;1.95;1.75;;;15.50;99.90;;;;;;6125596;23;20019;-80
2022/08/03 04:55:46;;;;;;;2.08;1.70;;;15.60;99.90;;;;;;6096479;23;20014;-80
2022/08/03 04:58:13;;;;;;;1.63;1.48;;;15.70;99.90;;;;;;6095791;23;20026;-80
2022/08/03 05:00:42;;;;;;;6.95;2.20;;;15.80;99.90;;;;;;6095618;23;20034;-80
2022/08/03 05:03:09;;;;;;;1.52;1.42;;;16.00;99.90;;;;;;6095760;23;20051;-80
2022/08/03 05:05:54;;;;;;;2.07;1.70;;;16.30;99.90;;;;;;6124175;23;20358;-80
2022/08/03 05:08:37;;;;;;;1.88;1.77;;;16.60;99.90;;;;;;6126964;23;20249;-80
2022/08/03 05:11:16;;;;;;;4.80;1.85;;;16.80;99.90;;;;;;6096467;23;20016;-80
2022/08/03 05:13:45;;;;;;;1.83;1.73;;;17.00;99.90;;;;;;6119784;23;20492;-80
2022/08/03 05:16:13;;;;;;;1.98;1.45;;;16.90;99.90;;;;;;6130510;23;20037;-80
2022/08/03 05:18:42;;;;;;;1.58;1.48;;;16.90;99.90;;;;;;6119594;23;20451;-80
2022/08/03 05:21:12;;;;;;;2.15;1.90;;;16.80;99.90;;;;;;6095411;23;20378;-80
2022/08/03 05:23:40;;;;;;;1.50;1.40;;;16.80;99.90;;;;;;6094119;23;20457;-80
2022/08/03 05:26:10;;;;;;;2.00;1.90;;;16.90;99.90;;;;;;6124219;23;20025;-80
2022/08/03 05:28:38;;;;;;;7.63;1.77;;;17.10;99.90;;;;;;6103796;23;20017;-80
2022/08/03 05:31:18;;;;;;;3.50;3.20;;;17.30;99.90;;;;;;6096278;23;20022;-81
2022/08/03 05:33:47;;;;;;;1.50;1.40;;;17.30;99.90;;;;;;6119725;23;20026;-81
2022/08/03 05:36:15;;;;;;;2.63;1.40;;;17.50;99.90;;;;;;6096078;23;20037;-81
2022/08/03 05:38:43;;;;;;;2.25;2.05;;;17.60;99.90;;;;;;6093344;23;20086;-81
2022/08/03 05:41:11;;;;;;;1.73;1.60;;;17.90;99.90;;;;;;6095393;23;20033;-80
2022/08/03 05:43:53;;;;;;;4.25;1.23;;;18.10;99.90;;;;;;6096133;23;20028;-80
2022/08/03 05:46:22;;;;;;;1.85;1.45;;;18.20;99.90;;;;;;6122883;23;20350;-81
2022/08/03 05:48:50;;;;;;;1.73;1.63;;;18.30;99.90;;;;;;6123730;23;20025;-80
2022/08/03 05:51:18;;;;;;;2.85;1.80;;;18.50;99.90;;;;;;6131916;23;20017;-81
2022/08/03 05:53:45;;;;;;;1.50;1.40;;;18.60;99.90;;;;;;6122752;23;20033;-81
2022/08/03 05:56:13;;;;;;;1.80;1.70;;;18.80;99.90;;;;;;6130095;23;20036;-81
2022/08/03 05:58:45;;;;;;;1.52;1.42;;;18.80;99.90;;;;;;6120737;23;20351;-81
2022/08/03 06:01:14;;;;;;;1.45;1.35;;;18.90;99.90;;;;;;6125753;23;20332;-81
2022/08/03 06:03:42;;;;;;;1.60;1.40;;;19.10;99.90;;;;;;6129525;23;20017;-81
2022/08/03 06:06:10;;;;;;;1.52;1.45;;;19.10;99.90;;;;;;6119734;23;20345;-81
2022/08/03 06:08:39;;;;;;;2.10;1.90;;;19.10;99.90;;;;;;6127687;23;20018;-81
2022/08/03 06:11:08;;;;;;;3.90;1.63;;;19.20;99.90;;;;;;6105900;23;20021;-81
2022/08/03 06:13:36;;;;;;;1.15;1.15;;;19.30;99.90;;;;;;6124340;23;20026;-81
2022/08/03 06:16:04;;;;;;;1.70;1.60;;;19.40;99.90;;;;;;6130209;23;20010;-81
2022/08/03 06:18:33;;;;;;;2.15;1.70;;;19.50;99.90;;;;;;6118796;23;20033;-81
2022/08/03 06:21:00;;;;;;;2.90;1.63;;;19.60;99.90;;;;;;6128224;23;20030;-80
2022/08/03 06:23:44;;;;;;;5.28;2.13;;;19.70;99.90;;;;;;6128232;23;20018;-80
2022/08/03 06:26:20;;;;;;;1.60;1.50;;;19.80;99.90;;;;;;6119367;23;20030;-81
2022/08/03 06:28:48;;;;;;;2.42;1.40;;;19.90;99.90;;;;;;6127073;23;20036;-80
2022/08/03 06:31:22;;;;;;;1.55;1.45;;;20.00;99.90;;;;;;6105416;23;20021;-81
2022/08/03 06:33:50;;;;;;;2.95;2.72;;;20.20;99.90;;;;;;6094766;23;20026;-81
2022/08/03 06:36:38;;;;;;;1.67;1.50;;;20.40;99.90;;;;;;6093010;23;20025;-81
2022/08/03 06:39:06;;;;;;;3.40;1.50;;;20.60;99.90;;;;;;6095830;23;20187;-80
2022/08/03 06:41:35;;;;;;;2.75;2.55;;;20.70;99.90;;;;;;6096109;23;20473;-81
2022/08/03 06:44:08;;;;;;;3.10;2.03;;;20.70;99.90;;;;;;6129553;23;20021;-80
2022/08/03 06:46:36;;;;;;;1.58;1.48;;;20.80;99.90;;;;;;6119714;23;20349;-81
2022/08/03 06:49:05;;;;;;;2.70;2.50;;;20.80;99.90;;;;;;6097313;23;20037;-80
2022/08/03 06:51:33;;;;;;;1.83;1.73;;;20.70;99.90;;;;;;6094565;23;20018;-81
2022/08/03 06:54:21;;;;;;;3.88;1.95;;;20.50;99.90;;;;;;6094761;23;20022;-81
2022/08/03 06:56:49;;;;;;;1.88;1.77;;;20.50;99.90;;;;;;6128448;23;20382;-81
2022/08/03 06:59:17;;;;;;;3.72;2.25;;;20.70;99.90;;;;;;6128899;23;20014;-81
2022/08/03 07:02:05;;;;;;;1.67;1.58;;;20.60;99.90;;;;;;6094102;23;20029;-81
2022/08/03 07:04:32;;;;;;;2.00;1.77;;;20.80;99.90;;;;;;6103828;23;20464;-81
2022/08/03 07:07:00;;;;;;;2.40;1.40;;;20.90;99.90;;;;;;6129199;23;20017;-81
2022/08/03 07:09:28;;;;;;;1.88;1.50;;;21.00;99.90;;;;;;6093421;23;20481;-81
2022/08/03 07:11:56;;;;;;;4.53;2.35;;;21.00;99.90;;;;;;6119511;23;20326;-81
2022/08/03 07:14:24;;;;;;;1.70;1.60;;;21.20;99.90;;;;;;6096311;23;20469;-83
2022/08/03 07:16:51;;;;;;;7.00;1.42;;;21.30;99.90;;;;;;6125882;23;20026;-81
2022/08/03 07:19:19;;;;;;;2.92;1.50;;;21.50;99.90;;;;;;6118861;23;20014;-81
2022/08/03 07:21:47;;;;;;;1.88;1.17;;;21.60;99.90;;;;;;6092506;23;20030;-82
2022/08/03 07:24:14;;;;;;;1.27;1.17;;;21.60;99.90;;;;;;6104976;23;20021;-82
2022/08/03 07:26:42;;;;;;;1.20;1.20;;;21.70;99.90;;;;;;6094398;23;20030;-82
2022/08/03 07:29:11;;;;;;;1.90;1.20;;;21.80;99.90;;;;;;6126223;23;20022;-82
2022/08/03 07:31:42;;;;;;;13.57;1.75;;;21.70;99.90;;;;;;6094555;23;20018;-82
2022/08/03 07:34:09;;;;;;;1.55;1.45;;;21.70;99.90;;;;;;6121246;23;20342;-82
2022/08/03 07:36:37;;;;;;;1.63;1.50;;;22.00;99.90;;;;;;6092693;23;20029;-82
2022/08/03 07:39:05;;;;;;;1.58;1.50;;;22.40;99.90;;;;;;6093048;23;20025;-82
2022/08/03 07:41:45;;;;;;;3.03;1.30;;;22.70;99.90;;;;;;6123244;23;20486;-82
2022/08/03 07:44:13;;;;;;;1.00;1.00;;;22.80;99.90;;;;;;6129125;23;20663;-82
2022/08/03 07:46:41;;;;;;;1.45;1.33;;;23.00;99.90;;;;;;6120686;23;20511;-82
2022/08/03 07:49:09;;;;;;;1.35;1.25;;;23.20;99.90;;;;;;6093426;23;20048;-82
2022/08/03 07:51:36;;;;;;;2.92;1.63;;;23.30;99.90;;;;;;6093623;23;20018;-83
2022/08/03 07:54:04;;;;;;;1.27;1.17;;;23.40;99.90;;;;;;6121537;23;20423;-82
2022/08/03 07:56:32;;;;;;;7.55;1.92;;;23.60;99.90;;;;;;6118417;23;20022;-82
2022/08/03 07:59:01;;;;;;;5.40;1.35;;;23.70;99.90;;;;;;6128769;23;20512;-81
2022/08/03 08:01:31;;;;;;;4.88;1.33;;;23.80;99.90;;;;;;6118525;23;20477;-82
2022/08/03 08:03:59;;;;;;;1.20;1.20;;;24.00;99.90;;;;;;6094952;23;20017;-82
2022/08/03 08:06:27;;;;;;;1.65;1.55;;;24.10;99.90;;;;;;6093510;23;20457;-82
2022/08/03 08:08:58;;;;;;;1.48;1.38;;;24.10;99.90;;;;;;6092349;23;20025;-82
2022/08/03 08:11:26;;;;;;;2.00;1.80;;;24.20;99.90;;;;;;6094620;23;20022;-82
2022/08/03 08:13:56;;;;;;;2.55;1.00;;;24.30;99.90;;;;;;6123965;23;20030;-82
2022/08/03 08:16:23;;;;;;;2.67;1.30;;;24.40;99.90;;;;;;6094167;23;20030;-82
2022/08/03 08:18:51;;;;;;;1.30;1.20;;;24.50;99.90;;;;;;6093424;23;20041;-81
2022/08/03 08:21:19;;;;;;;1.17;1.10;;;24.60;99.90;;;;;;6124050;23;20030;-82
2022/08/03 08:23:47;;;;;;;1.67;1.48;;;24.50;99.90;;;;;;6093483;23;20029;-81
2022/08/03 08:26:24;;;;;;;1.23;1.13;;;24.60;99.90;;;;;;6121885;23;20018;-81
2022/08/03 08:28:52;;;;;;;2.00;1.73;;;24.90;99.90;;;;;;6093242;23;20022;-82
2022/08/03 08:31:19;;;;;;;2.97;1.92;;;25.40;99.90;;;;;;6118891;23;20029;-82
2022/08/03 08:33:47;;;;;;;1.58;1.23;;;25.70;99.90;;;;;;6123886;23;20030;-82
2022/08/03 08:36:32;;;;;;;1.17;1.00;;;25.60;99.90;;;;;;6093029;23;20075;-81
2022/08/03 08:39:00;;;;;;;1.33;1.23;;;25.60;99.90;;;;;;6117568;23;20025;-81
2022/08/03 08:41:32;;;;;;;2.25;1.10;;;25.60;99.90;;;;;;6093805;23;20061;-81
2022/08/03 08:44:01;;;;;;;1.00;1.00;;;25.70;99.90;;;;;;6094532;23;20014;-81
2022/08/03 08:46:31;;;;;;;7.30;1.70;;;25.60;99.90;;;;;;6119560;23;20033;-80
2022/08/03 08:49:00;;;;;;;1.33;1.23;;;25.60;99.90;;;;;;6092634;23;20018;-81
2022/08/03 08:51:36;;;;;;;1.40;1.30;;;25.60;99.90;;;;;;6094299;23;20022;-81
2022/08/03 08:54:24;;;;;;;1.27;1.17;;;25.50;99.90;;;;;;6098661;23;20026;-81
2022/08/03 08:56:54;;;;;;;4.03;1.27;;;25.60;99.90;;;;;;6093080;23;20057;-81
2022/08/03 08:59:24;;;;;;;2.75;0.98;;;25.70;99.90;;;;;;6093519;23;20029;-81
2022/08/03 09:01:56;;;;;;;3.33;1.17;;;25.80;99.90;;;;;;6093557;23;20025;-81
2022/08/03 09:04:25;;;;;;;1.27;1.10;;;25.70;99.90;;;;;;6103223;23;20023;-81
2022/08/03 09:06:53;;;;;;;1.15;1.05;;;25.70;99.90;;;;;;6092640;23;20393;-81
2022/08/03 09:09:41;;;;;;;0.88;0.73;;;25.60;99.90;;;;;;6094030;23;20037;-81
2022/08/03 09:12:29;;;;;;;0.90;0.90;;;25.60;99.90;;;;;;6094207;23;20025;-81
2022/08/03 09:15:26;;;;;;;1.30;1.30;;;25.70;99.90;;;;;;6094969;23;20442;-81
2022/08/03 09:17:57;;;;;;;2.00;1.10;;;25.80;99.90;;;;;;6093524;23;20037;-80
2022/08/03 09:20:31;;;;;;;0.80;0.80;;;25.80;99.90;;;;;;6104234;23;20026;-83
2022/08/03 09:23:00;;;;;;;1.17;1.08;;;25.80;99.90;;;;;;6116872;23;20025;-84
2022/08/03 09:25:58;;;;;;;1.33;1.23;;;25.90;99.90;;;;;;6122731;23;20021;-83
2022/08/03 09:28:33;;;;;;;2.05;1.58;;;25.90;99.90;;;;;;6092382;23;20021;-84
2022/08/03 09:31:34;;;;;;;4.38;0.85;;;26.00;99.90;;;;;;6083289;23;20014;-84
2022/08/03 09:34:08;;;;;;;0.85;0.85;;;26.20;99.90;;;;;;6119324;23;20040;-84
2022/08/03 09:36:38;;;;;;;16.70;1.75;;;26.30;99.90;;;;;;6127347;23;20017;-83
2022/08/03 09:39:09;;;;;;;;;;;26.40;99.90;;;;;;6095990;23;20024;-84
2022/08/03 09:41:42;;;;;;;;;;;26.50;99.90;;;;;;6096115;23;19921;-84
2022/08/03 09:44:09;;;;;;;1.05;1.00;;;26.60;99.90;;;;;;6072216;23;19928;-83
2022/08/03 09:46:57;;;;;;;1.20;0.90;;;26.50;99.90;;;;;;6118303;23;20030;-83
2022/08/03 09:49:27;;;;;;;1.30;1.00;;;26.50;99.90;;;;;;6114254;23;20035;-85
2022/08/03 09:51:55;;;;;;;2.00;1.00;;;26.60;99.90;;;;;;6089126;23;20022;-85
2022/08/03 09:54:50;;;;;;;5.22;1.77;;;26.60;99.90;;;;;;6042567;23;20042;-84
2022/08/03 09:57:25;;;;;;;1.20;1.05;;;26.40;99.90;;;;;;6120300;23;20023;-84
2022/08/03 10:00:04;;;;;;;1.63;1.10;;;26.50;99.90;;;;;;6100173;23;20010;-83
2022/08/03 10:02:42;;;;;;;1.33;1.23;;;26.70;99.90;;;;;;6112035;23;20458;-84
2022/08/03 10:05:11;;;;;;;1.00;0.90;;;26.70;99.90;;;;;;6097212;23;20030;-83
2022/08/03 10:07:48;;;;;;;1.92;1.15;;;26.70;99.20;;;;;;6111480;23;20014;-85
2022/08/03 10:10:17;;;;;;;2.15;1.42;;;26.80;99.30;;;;;;6090596;23;20463;-84
2022/08/03 10:12:59;;;;;;;2.97;1.40;;;26.80;99.30;;;;;;6122098;23;20429;-84
2022/08/03 10:15:27;;;;;;;4.03;1.27;;;27.00;99.90;;;;;;6114466;23;20014;-84
2022/08/03 10:18:15;;;;;;;1.27;1.17;;;27.10;99.20;;;;;;6110029;23;20231;-84
2022/08/03 10:20:48;;;;;;;1.20;1.00;;;27.10;99.90;;;;;;6123161;23;20487;-83
2022/08/03 10:23:17;;;;;;;1.98;1.00;;;27.10;99.90;;;;;;6088762;23;20458;-84
2022/08/03 10:25:48;;;;;;;0.82;0.82;;;27.20;99.90;;;;;;6089860;23;20037;-84
2022/08/03 10:28:18;;;;;;;;;;;27.30;97.50;;;;;;6101090;23;20331;-86
2022/08/03 10:30:52;;;;;;;1.70;0.98;;;27.30;97.50;;;;;;6041900;23;19956;-83
2022/08/03 10:33:42;;;;;;;1.05;0.93;;;27.30;97.70;;;;;;6088455;23;20056;-83
2022/08/03 10:36:23;;;;;;;1.15;0.70;;;27.50;99.90;;;;;;6122310;23;20014;-85
2022/08/03 10:38:52;;;;;;;11.63;1.30;;;27.60;98.20;;;;;;6112152;23;20454;-81
2022/08/03 10:41:24;;;;;;;0.77;0.77;;;27.40;98.20;;;;;;6114073;23;20029;-81
2022/08/03 10:44:08;;;;;;;2.35;1.13;;;27.30;96.60;;;;;;6113924;23;20026;-81
2022/08/03 10:46:39;;;;;;;5.38;1.05;;;27.30;98.10;;;;;;6113389;23;20339;-81
2022/08/03 10:49:13;;;;;;;1.00;0.88;;;27.40;98.80;;;;;;6121590;23;20026;-81
2022/08/03 10:51:45;;;;;;;0.98;0.98;;;27.60;97.70;;;;;;6103487;23;20353;-81
2022/08/03 10:57:52;;;;;;;0.68;0.68;;;27.70;97.00;;;;;;6123820;23;20710;-81
2022/08/03 11:00:28;;;;;;;1.05;0.82;;;27.50;95.30;;;;;;6081488;23;20442;-81
2022/08/03 11:03:08;;;;;;;6.38;1.20;;;27.30;97.90;;;;;;6094128;23;20014;-80
2022/08/03 11:05:38;;;;;;;5.93;1.20;;;27.40;96.30;;;;;;6099953;23;20034;-82
2022/08/03 11:08:30;;;;;;;2.97;1.13;;;27.50;95.50;;;;;;6128624;23;20461;-80
2022/08/03 11:10:59;;;;;;;;;;;27.60;95.40;;;;;;6079937;23;20025;-80
2022/08/03 11:13:30;;;;;;;0.73;0.73;;;27.60;95.20;;;;;;6124526;23;20320;-81
2022/08/03 11:16:01;;;;;;;1.75;1.10;;;27.80;95.50;;;;;;6129548;23;20029;-81
2022/08/03 11:18:33;;;;;;;0.65;0.60;;;27.80;96.50;;;;;;6117975;23;20029;-81
2022/08/03 11:21:00;;;;;;;0.80;0.80;;;28.00;93.40;;;;;;6094697;23;20457;-81
2022/08/03 11:23:46;;;;;;;0.88;0.75;;;27.90;96.00;;;;;;6093196;23;20018;-81
2022/08/03 11:26:33;;;;;;;1.05;1.05;;;27.90;92.20;;;;;;6097003;23;20041;-81
2022/08/03 11:29:28;;;;;;;1.35;1.25;;;27.80;93.70;;;;;;6125706;23;20018;-81
2022/08/03 11:31:56;;;;;;;0.60;0.60;;;27.70;93.20;;;;;;6114846;23;20108;-81
2022/08/03 11:34:24;;;;;;;8.65;1.25;;;27.60;95.70;;;;;;6121867;23;20349;-81
2022/08/03 11:37:21;;;;;;;0.60;0.52;;;27.70;95.40;;;;;;6124944;23;20453;-81
2022/08/03 11:39:53;;;;;;;1.30;1.10;;;27.80;93.80;;;;;;6094417;23;20018;-81
2022/08/03 11:42:21;;;;;;;2.00;1.08;;;27.80;94.70;;;;;;6094234;23;20481;-81
2022/08/03 11:44:58;;;;;;;0.60;0.60;;;27.90;93.90;;;;;;6094252;23;20026;-81
2022/08/03 11:47:28;;;;;;;0.68;0.68;;;27.90;93.80;;;;;;6094105;23;20021;-81
2022/08/03 11:49:59;;;;;;;0.73;0.52;;;28.20;93.10;;;;;;6094799;23;20046;-82
2022/08/03 11:52:34;;;;;;;0.88;0.88;;;28.30;91.50;;;;;;6092605;23;20721;-81
2022/08/03 11:55:08;;;;;;;0.60;0.60;;;28.40;91.30;;;;;;6095042;23;20473;-81
2022/08/03 11:57:36;;;;;;;1.40;0.93;;;28.50;90.00;;;;;;6071079;23;20029;-81
2022/08/03 12:00:28;;;;;;;2.28;1.00;;;28.50;89.40;;;;;;6094633;23;20246;-81
2022/08/03 12:02:56;;;;;;;0.80;0.80;;;28.60;91.10;;;;;;6094418;23;20018;-81
2022/08/03 12:05:39;;;;;;;2.28;1.10;;;28.70;92.20;;;;;;6094337;23;20310;-81
2022/08/03 12:08:09;;;;;;;0.70;0.50;;;28.90;90.30;;;;;;6125975;23;20021;-81
2022/08/03 12:10:38;;;;;;;0.80;0.80;;;29.00;90.20;;;;;;6120774;23;20030;-80
2022/08/03 12:13:09;;;;;;;1.25;0.88;;;29.00;91.20;;;;;;6118912;23;20394;-81
2022/08/03 12:15:58;;;;;;;0.82;0.82;;;29.10;90.90;;;;;;6108973;23;20461;-81
2022/08/03 12:18:25;;;;;;;0.57;0.57;;;29.10;90.40;;;;;;6120400;23;20030;-80
2022/08/03 12:21:04;;;;;;;1.77;0.82;;;29.10;90.70;;;;;;6094095;23;20022;-81
2022/08/03 12:23:31;;;;;;;0.75;0.75;;;29.00;90.10;;;;;;6126838;23;20021;-81
2022/08/03 12:26:08;;;;;;;1.05;0.88;;;29.00;88.30;;;;;;6097526;23;20037;-81
2022/08/03 12:28:36;;;;;;;0.70;0.70;;;29.00;90.80;;;;;;6117569;23;20018;-81
2022/08/03 12:31:08;;;;;;;1.92;1.00;;;29.10;90.70;;;;;;6130498;23;20018;-81
2022/08/03 12:33:56;;;;;;;1.42;0.90;;;29.20;89.60;;;;;;6093647;23;20029;-81
2022/08/03 12:36:26;;;;;;;1.17;1.08;;;29.20;90.40;;;;;;6126960;23;20024;-81
2022/08/03 12:39:03;;;;;;;1.83;0.93;;;29.20;90.80;;;;;;6128676;23;20014;-81
2022/08/03 12:41:35;;;;;;;0.70;0.70;;;29.30;88.50;;;;;;6125254;23;20030;-81
2022/08/03 12:44:08;;;;;;;3.30;0.55;;;29.30;90.20;;;;;;6130293;23;20025;-81
2022/08/03 12:46:37;;;;;;;1.00;0.70;;;29.40;90.80;;;;;;6093662;23;20030;-82
2022/08/03 12:49:14;;;;;;;0.35;0.35;;;29.40;88.20;;;;;;6123321;23;20022;-82
2022/08/03 12:51:42;;;;;;;0.68;0.65;;;29.40;85.70;;;;;;6129478;23;20014;-83
2022/08/03 12:54:16;;;;;;;0.75;0.70;;;29.30;83.70;;;;;;6096755;23;20030;-83
2022/08/03 12:57:07;;;;;;;1.02;0.93;;;29.30;84.10;;;;;;6126377;23;20436;-83
2022/08/03 12:59:44;;;;;;;0.70;0.70;;;29.40;82.60;;;;;;6080104;23;20014;-82
2022/08/03 13:02:22;;;;;;;2.08;1.17;;;29.40;83.90;;;;;;6093615;23;20026;-82
2022/08/03 13:04:54;;;;;;;39.20;4.10;;;29.30;84.60;;;;;;6126343;23;20041;-83
2022/08/03 13:07:21;;;;;;;0.73;0.60;;;29.20;84.20;;;;;;6132694;23;20025;-82
2022/08/03 13:09:54;;;;;;;1.20;0.80;;;29.20;83.00;;;;;;6128541;23;20029;-83
2022/08/03 13:12:24;;;;;;;1.08;0.98;;;29.10;82.20;;;;;;6132125;23;20017;-82
2022/08/03 13:14:55;;;;;;;0.80;0.73;;;29.30;87.50;;;;;;6119795;23;20465;-83
2022/08/03 13:17:24;;;;;;;0.90;0.70;;;29.60;85.20;;;;;;6125624;23;20449;-83
2022/08/03 13:19:52;;;;;;;0.73;0.73;;;29.60;83.90;;;;;;6105996;23;20014;-81
2022/08/03 13:22:21;;;;;;;5.78;0.68;;;29.80;83.20;;;;;;6095919;23;20026;-81
2022/08/03 13:24:52;;;;;;;6.72;0.93;;;29.70;77.60;;;;;;6129135;23;20026;-85
2022/08/03 13:27:19;;;;;;;0.80;0.77;;;29.50;80.40;;;;;;6106194;23;20331;-85
2022/08/03 13:30:09;;;;;;;0.88;0.60;;;29.50;80.30;;;;;;6123566;23;20041;-84
2022/08/03 13:32:36;;;;;;;1.98;1.00;;;29.60;83.60;;;;;;6130192;23;20014;-85
2022/08/03 13:35:05;;;;;;;0.82;0.82;;;29.70;82.80;;;;;;6131749;23;20010;-84
2022/08/03 13:37:33;;;;;;;0.85;0.70;;;29.70;82.50;;;;;;6093723;23;20029;-85
2022/08/03 13:40:04;;;;;;;3.33;0.63;;;29.90;81.00;;;;;;6095960;23;20037;-85
2022/08/03 13:42:34;;;;;;;0.50;0.50;;;29.90;81.00;;;;;;6095528;23;20029;-80
2022/08/03 13:45:04;;;;;;;1.48;0.52;;;29.90;79.90;;;;;;6126847;23;20030;-81
2022/08/03 13:47:32;;;;;;;0.77;0.75;;;29.90;78.70;;;;;;6095739;23;20022;-80
2022/08/03 13:50:00;;;;;;;0.55;0.52;;;30.00;76.80;;;;;;6124356;23;20034;-80
2022/08/03 13:52:33;;;;;;;4.60;0.60;;;29.90;74.10;;;;;;6127474;23;20018;-81
2022/08/03 13:55:03;;;;;;;0.70;0.63;;;29.90;79.80;;;;;;6106241;23;20021;-80
2022/08/03 13:57:31;;;;;;;;;;;30.00;79.30;;;;;;6072305;23;20026;-81
2022/08/03 14:00:23;;;;;;;0.70;0.70;;;30.00;77.30;;;;;;6132359;23;19921;-81
2022/08/03 14:02:56;;;;;;;1.02;0.52;;;30.00;75.10;;;;;;6120858;23;20022;-81
2022/08/03 14:05:32;;;;;;;0.55;0.55;;;30.00;75.30;;;;;;6126693;23;20339;-80
2022/08/03 14:08:01;;;;;;;1.08;0.80;;;30.00;72.10;;;;;;6104000;23;20635;-80
2022/08/03 14:10:34;;;;;;;0.45;0.35;;;29.90;71.60;;;;;;6119217;23;20374;-81
2022/08/03 14:13:03;;;;;;;1.02;0.73;;;29.80;72.50;;;;;;6126963;23;20369;-81
2022/08/03 14:15:31;;;;;;;1.70;0.60;;;29.90;75.00;;;;;;6131574;23;20323;-81
2022/08/03 14:18:08;;;;;;;0.73;0.40;;;29.90;70.20;;;;;;6094777;23;20025;-80
2022/08/03 14:20:45;;;;;;;3.22;0.90;;;29.80;72.40;;;;;;6127987;23;20030;-80
2022/08/03 14:23:18;;;;;;;1.00;0.68;;;29.80;73.30;;;;;;6129324;23;20463;-80
2022/08/03 14:25:46;;;;;;;0.63;0.60;;;29.80;70.90;;;;;;6095273;23;20036;-80
2022/08/03 14:28:21;;;;;;;0.82;0.63;;;29.90;70.00;;;;;;6131729;23;20018;-80
2022/08/03 14:30:50;;;;;;;0.63;0.60;;;29.90;68.20;;;;;;6120802;23;20339;-81
2022/08/03 14:33:19;;;;;;;1.40;0.98;;;30.00;73.10;;;;;;6101309;23;20022;-81
2022/08/03 14:35:47;;;;;;;0.93;0.82;;;30.10;74.10;;;;;;6129804;23;20406;-80